sensor_id;sensor_type;location;lat;lon;timestamp;temperature;humidity
27890;DHT22;15238;49.082;9.102;2023-03-01T00:00:25;-1.40;99.90
27890;DHT22;15238;49.082;9.102;2023-03-01T00:02:25;-1.30;99.90
27890;DHT22;15238;49.082;9.102;2023-03-01T00:04:26;-1.30;99.90
27890;DHT22;15238;49.082;9.102;2023-03-01T00:06:28;-1.30;99.90
27890;DHT22;15238;49.082;9.102;2023-03-01T00:08:29;-1.40;99.90
27890;DHT22;15238;49.082;9.102;2023-03-01T00:10:30;-1.50;99.90
27890;DHT22;15238;49.082;9.102;2023-03-01T00:12:31;-1.50;99.90
27890;DHT22;15238;49.082;9.102;2023-03-01T00:14:32;-1.60;99.90
27890;DHT22;15238;49.082;9.102;2023-03-01T00:16:35;-1.60;99.90
27890;DHT22;15238;49.082;9.102;2023-03-01T00:18:36;-1.60;99.90
27890;DHT22;15238;49.082;9.102;2023-03-01T00:20:36;-1.60;99.90
27890;DHT22;15238;49.082;9.102;2023-03-01T00:22:37;-1.70;99.90
27890;DHT22;15238;49.082;9.102;2023-03-01T00:24:37;-1.70;99.90
27890;DHT22;15238;49.082;9.102;2023-03-01T00:26:38;-1.80;99.90
27890;DHT22;15238;49.082;9.102;2023-03-01T00:28:39;-1.80;99.90
27890;DHT22;15238;49.082;9.102;2023-03-01T00:30:39;-1.80;99.90
27890;DHT22;15238;49.082;9.102;2023-03-01T00:32:40;-1.70;99.90
27890;DHT22;15238;49.082;9.102;2023-03-01T00:34:40;-1.70;99.90
27890;DHT22;15238;49.082;9.102;2023-03-01T00:36:41;-1.70;99.90
27890;DHT22;15238;49.082;9.102;2023-03-01T00:38:44;-1.60;99.90
27890;DHT22;15238;49.082;9.102;2023-03-01T00:40:45;-1.50;99.90
27890;DHT22;15238;49.082;9.102;2023-03-01T00:42:45;-1.40;99.90
27890;DHT22;15238;49.082;9.102;2023-03-01T00:44:46;-1.30;99.90
27890;DHT22;15238;49.082;9.102;2023-03-01T00:46:46;-1.20;99.90
27890;DHT22;15238;49.082;9.102;2023-03-01T00:48:48;-1.20;99.90
27890;DHT22;15238;49.082;9.102;2023-03-01T00:50:51;-1.20;99.90
27890;DHT22;15238;49.082;9.102;2023-03-01T00:52:55;-1.20;99.90
27890;DHT22;15238;49.082;9.102;2023-03-01T00:54:56;-1.20;99.90
27890;DHT22;15238;49.082;9.102;2023-03-01T00:56:58;-1.20;99.90
27890;DHT22;15238;49.082;9.102;2023-03-01T00:59:00;-1.20;99.90
27890;DHT22;15238;49.082;9.102;2023-03-01T01:01:11;-1.20;99.90
27890;DHT22;15238;49.082;9.102;2023-03-01T01:03:17;-1.20;99.90
27890;DHT22;15238;49.082;9.102;2023-03-01T01:05:17;-1.30;99.90
27890;DHT22;15238;49.082;9.102;2023-03-01T01:07:21;-1.40;99.90
27890;DHT22;15238;49.082;9.102;2023-03-01T01:09:21;-1.50;99.90
27890;DHT22;15238;49.082;9.102;2023-03-01T01:11:26;-1.60;99.90
27890;DHT22;15238;49.082;9.102;2023-03-01T01:13:26;-1.60;99.90
27890;DHT22;15238;49.082;9.102;2023-03-01T01:15:27;-1.70;99.90
27890;DHT22;15238;49.082;9.102;2023-03-01T01:17:27;-1.70;99.90
27890;DHT22;15238;49.082;9.102;2023-03-01T01:19:28;-1.70;99.90
27890;DHT22;15238;49.082;9.102;2023-03-01T01:21:29;-1.70;99.90
27890;DHT22;15238;49.082;9.102;2023-03-01T01:23:29;-1.70;99.90
27890;DHT22;15238;49.082;9.102;2023-03-01T01:25:30;-1.80;99.90
27890;DHT22;15238;49.082;9.102;2023-03-01T01:27:30;-1.80;99.90
27890;DHT22;15238;49.082;9.102;2023-03-01T01:29:31;-1.80;99.90
27890;DHT22;15238;49.082;9.102;2023-03-01T01:31:33;-1.80;99.90
27890;DHT22;15238;49.082;9.102;2023-03-01T01:33:34;-1.80;99.90
27890;DHT22;15238;49.082;9.102;2023-03-01T01:35:34;-1.80;99.90
27890;DHT22;15238;49.082;9.102;2023-03-01T01:37:35;-1.80;99.90
27890;DHT22;15238;49.082;9.102;2023-03-01T01:39:35;-1.80;99.90
27890;DHT22;15238;49.082;9.102;2023-03-01T01:41:36;-1.80;99.90
27890;DHT22;15238;49.082;9.102;2023-03-01T01:43:42;-1.80;99.90
27890;DHT22;15238;49.082;9.102;2023-03-01T01:45:43;-1.80;99.90
27890;DHT22;15238;49.082;9.102;2023-03-01T01:47:43;-1.80;99.90
27890;DHT22;15238;49.082;9.102;2023-03-01T01:49:55;-1.70;99.90
27890;DHT22;15238;49.082;9.102;2023-03-01T01:54:44;-1.70;99.90
27890;DHT22;15238;49.082;9.102;2023-03-01T01:56:49;-1.70;99.90
27890;DHT22;15238;49.082;9.102;2023-03-01T01:58:52;-1.60;99.90
27890;DHT22;15238;49.082;9.102;2023-03-01T02:00:53;-1.60;99.90
27890;DHT22;15238;49.082;9.102;2023-03-01T02:02:59;-1.50;99.90
27890;DHT22;15238;49.082;9.102;2023-03-01T02:05:06;-1.50;99.90
27890;DHT22;15238;49.082;9.102;2023-03-01T02:07:20;-1.60;99.90
27890;DHT22;15238;49.082;9.102;2023-03-01T02:09:22;-1.60;99.90
27890;DHT22;15238;49.082;9.102;2023-03-01T02:11:23;-1.60;99.90
27890;DHT22;15238;49.082;9.102;2023-03-01T02:13:24;-1.70;99.90
27890;DHT22;15238;49.082;9.102;2023-03-01T02:15:24;-1.70;99.90
27890;DHT22;15238;49.082;9.102;2023-03-01T02:17:26;-1.70;99.90
27890;DHT22;15238;49.082;9.102;2023-03-01T02:19:40;-1.70;99.90
27890;DHT22;15238;49.082;9.102;2023-03-01T02:23:54;-1.60;99.90
27890;DHT22;15238;49.082;9.102;2023-03-01T02:26:08;-1.50;99.90
27890;DHT22;15238;49.082;9.102;2023-03-01T02:30:20;-1.50;99.90
27890;DHT22;15238;49.082;9.102;2023-03-01T02:32:21;-1.50;99.90
27890;DHT22;15238;49.082;9.102;2023-03-01T02:34:25;-1.50;99.90
27890;DHT22;15238;49.082;9.102;2023-03-01T02:36:29;-1.50;99.90
27890;DHT22;15238;49.082;9.102;2023-03-01T02:38:31;-1.50;99.90
27890;DHT22;15238;49.082;9.102;2023-03-01T02:40:33;-1.50;99.90
27890;DHT22;15238;49.082;9.102;2023-03-01T02:42:39;-1.50;99.90
27890;DHT22;15238;49.082;9.102;2023-03-01T02:44:41;-1.50;99.90
27890;DHT22;15238;49.082;9.102;2023-03-01T02:46:52;-1.60;99.90
27890;DHT22;15238;49.082;9.102;2023-03-01T02:48:55;-1.50;99.90
27890;DHT22;15238;49.082;9.102;2023-03-01T02:51:09;-1.50;99.90
27890;DHT22;15238;49.082;9.102;2023-03-01T02:53:29;-1.40;99.90
27890;DHT22;15238;49.082;9.102;2023-03-01T02:55:37;-1.50;99.90
27890;DHT22;15238;49.082;9.102;2023-03-01T02:57:40;-1.50;99.90
27890;DHT22;15238;49.082;9.102;2023-03-01T02:59:43;-1.60;99.90
27890;DHT22;15238;49.082;9.102;2023-03-01T03:01:43;-1.60;99.90
27890;DHT22;15238;49.082;9.102;2023-03-01T03:03:44;-1.60;99.90
27890;DHT22;15238;49.082;9.102;2023-03-01T03:05:44;-1.70;99.90
27890;DHT22;15238;49.082;9.102;2023-03-01T03:07:47;-1.80;99.90
27890;DHT22;15238;49.082;9.102;2023-03-01T03:09:47;-1.90;99.90
27890;DHT22;15238;49.082;9.102;2023-03-01T03:11:50;-1.90;99.90
27890;DHT22;15238;49.082;9.102;2023-03-01T03:13:51;-2.00;99.90
27890;DHT22;15238;49.082;9.102;2023-03-01T03:15:52;-2.00;99.90
27890;DHT22;15238;49.082;9.102;2023-03-01T03:17:53;-2.20;99.90
27890;DHT22;15238;49.082;9.102;2023-03-01T03:19:54;-2.20;99.90
27890;DHT22;15238;49.082;9.102;2023-03-01T03:21:54;-2.30;99.90
27890;DHT22;15238;49.082;9.102;2023-03-01T03:23:55;-2.30;99.90
27890;DHT22;15238;49.082;9.102;2023-03-01T03:25:55;-2.30;99.90
27890;DHT22;15238;49.082;9.102;2023-03-01T03:27:57;-2.30;99.90
27890;DHT22;15238;49.082;9.102;2023-03-01T03:29:58;-2.30;99.90
27890;DHT22;15238;49.082;9.102;2023-03-01T03:31:58;-2.30;99.90
27890;DHT22;15238;49.082;9.102;2023-03-01T03:33:59;-2.40;99.90
27890;DHT22;15238;49.082;9.102;2023-03-01T03:35:59;-2.40;99.90
27890;DHT22;15238;49.082;9.102;2023-03-01T03:38:04;-2.40;99.90
27890;DHT22;15238;49.082;9.102;2023-03-01T03:40:06;-2.50;99.90
27890;DHT22;15238;49.082;9.102;2023-03-01T03:42:15;-2.50;99.90
27890;DHT22;15238;49.082;9.102;2023-03-01T03:44:15;-2.50;99.90
27890;DHT22;15238;49.082;9.102;2023-03-01T03:46:16;-2.50;99.90
27890;DHT22;15238;49.082;9.102;2023-03-01T03:48:18;-2.60;99.90
27890;DHT22;15238;49.082;9.102;2023-03-01T03:50:19;-2.60;99.90
27890;DHT22;15238;49.082;9.102;2023-03-01T03:52:19;-2.60;99.90
27890;DHT22;15238;49.082;9.102;2023-03-01T03:54:20;-2.60;99.90
27890;DHT22;15238;49.082;9.102;2023-03-01T03:56:22;-2.60;99.90
27890;DHT22;15238;49.082;9.102;2023-03-01T03:58:26;-2.60;99.90
27890;DHT22;15238;49.082;9.102;2023-03-01T04:00:26;-2.60;99.90
27890;DHT22;15238;49.082;9.102;2023-03-01T04:02:27;-2.60;99.90
27890;DHT22;15238;49.082;9.102;2023-03-01T04:04:27;-2.60;99.90
27890;DHT22;15238;49.082;9.102;2023-03-01T04:06:28;-2.60;99.90
27890;DHT22;15238;49.082;9.102;2023-03-01T04:08:28;-2.60;99.90
27890;DHT22;15238;49.082;9.102;2023-03-01T04:10:31;-2.70;99.90
27890;DHT22;15238;49.082;9.102;2023-03-01T04:12:33;-2.70;99.90
27890;DHT22;15238;49.082;9.102;2023-03-01T04:14:36;-2.70;99.90
27890;DHT22;15238;49.082;9.102;2023-03-01T04:16:37;-2.70;99.90
27890;DHT22;15238;49.082;9.102;2023-03-01T04:18:37;-2.70;99.90
27890;DHT22;15238;49.082;9.102;2023-03-01T04:20:38;-2.70;99.90
27890;DHT22;15238;49.082;9.102;2023-03-01T04:22:39;-2.70;99.90
27890;DHT22;15238;49.082;9.102;2023-03-01T04:24:40;-2.70;99.90
27890;DHT22;15238;49.082;9.102;2023-03-01T04:26:41;-2.70;99.90
27890;DHT22;15238;49.082;9.102;2023-03-01T04:28:42;-2.60;99.90
27890;DHT22;15238;49.082;9.102;2023-03-01T04:30:46;-2.60;99.90
27890;DHT22;15238;49.082;9.102;2023-03-01T04:32:47;-2.60;99.90
27890;DHT22;15238;49.082;9.102;2023-03-01T04:34:47;-2.60;99.90
27890;DHT22;15238;49.082;9.102;2023-03-01T04:36:48;-2.60;99.90
27890;DHT22;15238;49.082;9.102;2023-03-01T04:38:48;-2.60;99.90
27890;DHT22;15238;49.082;9.102;2023-03-01T04:40:49;-2.60;99.90
27890;DHT22;15238;49.082;9.102;2023-03-01T04:42:49;-2.60;99.90
27890;DHT22;15238;49.082;9.102;2023-03-01T04:44:50;-2.60;99.90
27890;DHT22;15238;49.082;9.102;2023-03-01T04:46:51;-2.60;99.90
27890;DHT22;15238;49.082;9.102;2023-03-01T04:48:52;-2.70;99.90
27890;DHT22;15238;49.082;9.102;2023-03-01T04:50:52;-2.70;99.90
27890;DHT22;15238;49.082;9.102;2023-03-01T04:52:53;-2.80;99.90
27890;DHT22;15238;49.082;9.102;2023-03-01T04:54:53;-2.80;99.90
27890;DHT22;15238;49.082;9.102;2023-03-01T04:56:54;-2.80;99.90
27890;DHT22;15238;49.082;9.102;2023-03-01T04:58:55;-2.90;99.90
27890;DHT22;15238;49.082;9.102;2023-03-01T05:00:55;-2.90;99.90
27890;DHT22;15238;49.082;9.102;2023-03-01T05:02:58;-2.90;99.90
27890;DHT22;15238;49.082;9.102;2023-03-01T05:04:59;-3.00;99.90
27890;DHT22;15238;49.082;9.102;2023-03-01T05:07:00;-3.00;99.90
27890;DHT22;15238;49.082;9.102;2023-03-01T05:09:00;-3.00;99.90
27890;DHT22;15238;49.082;9.102;2023-03-01T05:11:01;-3.00;99.90
27890;DHT22;15238;49.082;9.102;2023-03-01T05:13:02;-3.00;99.90
27890;DHT22;15238;49.082;9.102;2023-03-01T05:15:04;-3.10;99.90
27890;DHT22;15238;49.082;9.102;2023-03-01T05:17:07;-3.10;99.90
27890;DHT22;15238;49.082;9.102;2023-03-01T05:19:08;-3.10;99.90
27890;DHT22;15238;49.082;9.102;2023-03-01T05:21:22;-3.20;99.90
27890;DHT22;15238;49.082;9.102;2023-03-01T05:23:24;-3.10;99.90
27890;DHT22;15238;49.082;9.102;2023-03-01T05:25:25;-3.20;99.90
27890;DHT22;15238;49.082;9.102;2023-03-01T05:27:26;-3.20;99.90
27890;DHT22;15238;49.082;9.102;2023-03-01T05:29:28;-3.10;99.90
27890;DHT22;15238;49.082;9.102;2023-03-01T05:31:29;-3.10;99.90
27890;DHT22;15238;49.082;9.102;2023-03-01T05:33:30;-3.10;99.90
27890;DHT22;15238;49.082;9.102;2023-03-01T05:35:32;-3.10;99.90
27890;DHT22;15238;49.082;9.102;2023-03-01T05:37:33;-3.10;99.90
27890;DHT22;15238;49.082;9.102;2023-03-01T05:39:36;-3.10;99.90
27890;DHT22;15238;49.082;9.102;2023-03-01T05:41:36;-3.10;99.90
27890;DHT22;15238;49.082;9.102;2023-03-01T05:43:37;-3.10;99.90
27890;DHT22;15238;49.082;9.102;2023-03-01T05:45:40;-3.00;99.90
27890;DHT22;15238;49.082;9.102;2023-03-01T05:47:42;-3.00;99.90
27890;DHT22;15238;49.082;9.102;2023-03-01T05:49:46;-3.00;99.90
27890;DHT22;15238;49.082;9.102;2023-03-01T05:51:51;-2.90;99.90
27890;DHT22;15238;49.082;9.102;2023-03-01T05:53:52;-2.90;99.90
27890;DHT22;15238;49.082;9.102;2023-03-01T05:55:53;-2.90;99.90
27890;DHT22;15238;49.082;9.102;2023-03-01T05:57:53;-2.90;99.90
27890;DHT22;15238;49.082;9.102;2023-03-01T05:59:54;-2.90;99.90
27890;DHT22;15238;49.082;9.102;2023-03-01T06:01:54;-2.90;99.90
27890;DHT22;15238;49.082;9.102;2023-03-01T06:03:55;-2.80;99.90
27890;DHT22;15238;49.082;9.102;2023-03-01T06:05:57;-2.80;99.90
27890;DHT22;15238;49.082;9.102;2023-03-01T06:07:59;-2.70;99.90
27890;DHT22;15238;49.082;9.102;2023-03-01T06:10:00;-2.80;99.90
27890;DHT22;15238;49.082;9.102;2023-03-01T06:12:00;-2.80;99.90
27890;DHT22;15238;49.082;9.102;2023-03-01T06:14:01;-2.80;99.90
27890;DHT22;15238;49.082;9.102;2023-03-01T06:16:05;-2.80;99.90
27890;DHT22;15238;49.082;9.102;2023-03-01T06:18:06;-2.80;99.90
27890;DHT22;15238;49.082;9.102;2023-03-01T06:20:09;-2.80;99.90
27890;DHT22;15238;49.082;9.102;2023-03-01T06:22:10;-2.80;99.90
27890;DHT22;15238;49.082;9.102;2023-03-01T06:24:11;-2.70;99.90
27890;DHT22;15238;49.082;9.102;2023-03-01T06:26:11;-2.70;99.90
27890;DHT22;15238;49.082;9.102;2023-03-01T06:28:12;-2.70;99.90
27890;DHT22;15238;49.082;9.102;2023-03-01T06:30:17;-2.70;99.90
27890;DHT22;15238;49.082;9.102;2023-03-01T06:32:17;-2.60;99.90
27890;DHT22;15238;49.082;9.102;2023-03-01T06:34:18;-2.60;99.90
27890;DHT22;15238;49.082;9.102;2023-03-01T06:36:19;-2.50;99.90
27890;DHT22;15238;49.082;9.102;2023-03-01T06:38:21;-2.50;99.90
27890;DHT22;15238;49.082;9.102;2023-03-01T06:40:22;-2.40;99.90
27890;DHT22;15238;49.082;9.102;2023-03-01T06:42:22;-2.40;99.90
27890;DHT22;15238;49.082;9.102;2023-03-01T06:44:23;-2.40;99.90
27890;DHT22;15238;49.082;9.102;2023-03-01T06:46:23;-2.30;99.90
27890;DHT22;15238;49.082;9.102;2023-03-01T06:48:24;-2.30;99.90
27890;DHT22;15238;49.082;9.102;2023-03-01T06:50:24;-2.20;99.90
27890;DHT22;15238;49.082;9.102;2023-03-01T06:52:25;-2.20;99.90
27890;DHT22;15238;49.082;9.102;2023-03-01T06:54:26;-2.10;99.90
27890;DHT22;15238;49.082;9.102;2023-03-01T06:56:26;-2.10;99.90
27890;DHT22;15238;49.082;9.102;2023-03-01T06:58:29;-2.00;99.90
27890;DHT22;15238;49.082;9.102;2023-03-01T07:00:30;-2.00;99.90
27890;DHT22;15238;49.082;9.102;2023-03-01T07:02:31;-2.00;99.90
27890;DHT22;15238;49.082;9.102;2023-03-01T07:04:32;-1.90;99.90
27890;DHT22;15238;49.082;9.102;2023-03-01T07:06:32;-1.90;99.90
27890;DHT22;15238;49.082;9.102;2023-03-01T07:08:33;-1.80;99.90
27890;DHT22;15238;49.082;9.102;2023-03-01T07:10:33;-1.70;99.90
27890;DHT22;15238;49.082;9.102;2023-03-01T07:12:34;-1.60;99.90
27890;DHT22;15238;49.082;9.102;2023-03-01T07:14:34;-1.50;99.90
27890;DHT22;15238;49.082;9.102;2023-03-01T07:16:35;-1.40;99.90
27890;DHT22;15238;49.082;9.102;2023-03-01T07:18:35;-1.30;99.90
27890;DHT22;15238;49.082;9.102;2023-03-01T07:20:36;-1.30;99.90
27890;DHT22;15238;49.082;9.102;2023-03-01T07:22:40;-1.20;99.90
27890;DHT22;15238;49.082;9.102;2023-03-01T07:24:42;-1.10;99.90
27890;DHT22;15238;49.082;9.102;2023-03-01T07:26:42;-1.10;99.90
27890;DHT22;15238;49.082;9.102;2023-03-01T07:28:43;-1.00;99.90
27890;DHT22;15238;49.082;9.102;2023-03-01T07:30:43;-1.00;99.90
27890;DHT22;15238;49.082;9.102;2023-03-01T07:32:45;-0.80;99.90
27890;DHT22;15238;49.082;9.102;2023-03-01T07:34:45;-0.70;99.90
27890;DHT22;15238;49.082;9.102;2023-03-01T07:36:46;-0.60;99.90
27890;DHT22;15238;49.082;9.102;2023-03-01T07:38:47;-0.60;99.90
27890;DHT22;15238;49.082;9.102;2023-03-01T07:40:48;-0.50;99.90
27890;DHT22;15238;49.082;9.102;2023-03-01T07:42:48;-0.40;99.90
27890;DHT22;15238;49.082;9.102;2023-03-01T07:44:49;-0.30;99.90
27890;DHT22;15238;49.082;9.102;2023-03-01T07:46:49;-0.30;99.90
27890;DHT22;15238;49.082;9.102;2023-03-01T07:48:52;-0.30;99.90
27890;DHT22;15238;49.082;9.102;2023-03-01T07:50:52;-0.20;99.90
27890;DHT22;15238;49.082;9.102;2023-03-01T07:52:53;-0.20;99.90
27890;DHT22;15238;49.082;9.102;2023-03-01T07:54:53;-0.10;99.90
27890;DHT22;15238;49.082;9.102;2023-03-01T07:56:54;0.00;99.90
27890;DHT22;15238;49.082;9.102;2023-03-01T07:58:55;-0.10;99.90
27890;DHT22;15238;49.082;9.102;2023-03-01T08:00:55;0.00;99.90
27890;DHT22;15238;49.082;9.102;2023-03-01T08:02:59;0.00;99.90
27890;DHT22;15238;49.082;9.102;2023-03-01T08:05:01;0.10;99.90
27890;DHT22;15238;49.082;9.102;2023-03-01T08:07:04;0.20;99.90
27890;DHT22;15238;49.082;9.102;2023-03-01T08:09:04;0.30;99.90
27890;DHT22;15238;49.082;9.102;2023-03-01T08:11:07;0.40;99.90
27890;DHT22;15238;49.082;9.102;2023-03-01T08:13:07;0.40;99.90
27890;DHT22;15238;49.082;9.102;2023-03-01T08:15:09;0.50;99.90
27890;DHT22;15238;49.082;9.102;2023-03-01T08:17:10;0.60;99.90
27890;DHT22;15238;49.082;9.102;2023-03-01T08:19:12;0.60;99.90
27890;DHT22;15238;49.082;9.102;2023-03-01T08:21:14;0.70;99.90
27890;DHT22;15238;49.082;9.102;2023-03-01T08:23:15;0.70;99.90
27890;DHT22;15238;49.082;9.102;2023-03-01T08:25:16;0.70;99.90
27890;DHT22;15238;49.082;9.102;2023-03-01T08:27:17;0.70;99.90
27890;DHT22;15238;49.082;9.102;2023-03-01T08:29:17;0.70;99.90
27890;DHT22;15238;49.082;9.102;2023-03-01T08:31:24;0.80;99.90
27890;DHT22;15238;49.082;9.102;2023-03-01T08:33:25;0.90;99.90
27890;DHT22;15238;49.082;9.102;2023-03-01T08:35:25;1.00;99.90
27890;DHT22;15238;49.082;9.102;2023-03-01T08:37:26;1.10;99.90
27890;DHT22;15238;49.082;9.102;2023-03-01T08:39:27;1.20;99.90
27890;DHT22;15238;49.082;9.102;2023-03-01T08:41:28;1.30;99.90
27890;DHT22;15238;49.082;9.102;2023-03-01T08:43:29;1.40;99.90
27890;DHT22;15238;49.082;9.102;2023-03-01T08:45:29;1.40;99.90
27890;DHT22;15238;49.082;9.102;2023-03-01T08:47:30;1.50;99.90
27890;DHT22;15238;49.082;9.102;2023-03-01T08:49:31;1.60;99.90
27890;DHT22;15238;49.082;9.102;2023-03-01T08:51:33;1.60;99.90
27890;DHT22;15238;49.082;9.102;2023-03-01T08:53:36;1.70;99.90
27890;DHT22;15238;49.082;9.102;2023-03-01T08:55:37;1.80;99.90
27890;DHT22;15238;49.082;9.102;2023-03-01T08:57:37;1.90;99.90
27890;DHT22;15238;49.082;9.102;2023-03-01T08:59:38;1.90;99.90
27890;DHT22;15238;49.082;9.102;2023-03-01T09:01:39;1.90;99.90
27890;DHT22;15238;49.082;9.102;2023-03-01T09:03:40;2.00;99.90
27890;DHT22;15238;49.082;9.102;2023-03-01T09:05:41;2.00;99.90
27890;DHT22;15238;49.082;9.102;2023-03-01T09:07:41;2.10;99.90
27890;DHT22;15238;49.082;9.102;2023-03-01T09:09:42;2.00;99.90
27890;DHT22;15238;49.082;9.102;2023-03-01T09:11:43;2.20;99.90
27890;DHT22;15238;49.082;9.102;2023-03-01T09:13:47;2.30;99.90
27890;DHT22;15238;49.082;9.102;2023-03-01T09:15:47;2.30;99.90
27890;DHT22;15238;49.082;9.102;2023-03-01T09:17:48;2.40;99.90
27890;DHT22;15238;49.082;9.102;2023-03-01T09:19:48;2.40;99.90
27890;DHT22;15238;49.082;9.102;2023-03-01T09:21:49;2.50;99.90
27890;DHT22;15238;49.082;9.102;2023-03-01T09:23:53;2.50;99.90
27890;DHT22;15238;49.082;9.102;2023-03-01T09:25:53;2.50;99.90
27890;DHT22;15238;49.082;9.102;2023-03-01T09:27:54;2.60;99.90
27890;DHT22;15238;49.082;9.102;2023-03-01T09:29:55;2.70;99.90
27890;DHT22;15238;49.082;9.102;2023-03-01T09:31:56;2.70;99.90
27890;DHT22;15238;49.082;9.102;2023-03-01T09:33:57;2.70;99.90
27890;DHT22;15238;49.082;9.102;2023-03-01T09:36:03;2.70;99.90
27890;DHT22;15238;49.082;9.102;2023-03-01T09:38:03;2.80;99.90
27890;DHT22;15238;49.082;9.102;2023-03-01T09:40:05;2.80;99.90
27890;DHT22;15238;49.082;9.102;2023-03-01T09:42:12;2.90;99.90
27890;DHT22;15238;49.082;9.102;2023-03-01T09:44:39;2.90;99.90
27890;DHT22;15238;49.082;9.102;2023-03-01T09:46:42;3.00;99.90
27890;DHT22;15238;49.082;9.102;2023-03-01T09:48:50;3.10;99.90
27890;DHT22;15238;49.082;9.102;2023-03-01T09:50:52;3.10;99.90
27890;DHT22;15238;49.082;9.102;2023-03-01T09:55:04;3.20;99.90
27890;DHT22;15238;49.082;9.102;2023-03-01T09:57:18;3.40;99.90
27890;DHT22;15238;49.082;9.102;2023-03-01T09:59:28;3.50;99.90
27890;DHT22;15238;49.082;9.102;2023-03-01T10:01:55;3.40;99.90
27890;DHT22;15238;49.082;9.102;2023-03-01T10:04:20;3.40;99.90
27890;DHT22;15238;49.082;9.102;2023-03-01T10:06:24;3.50;99.90
27890;DHT22;15238;49.082;9.102;2023-03-01T10:08:51;3.40;99.90
27890;DHT22;15238;49.082;9.102;2023-03-01T10:10:55;3.60;99.90
27890;DHT22;15238;49.082;9.102;2023-03-01T10:12:56;3.80;99.90
27890;DHT22;15238;49.082;9.102;2023-03-01T10:15:07;3.80;99.90
27890;DHT22;15238;49.082;9.102;2023-03-01T10:17:27;3.80;99.90
27890;DHT22;15238;49.082;9.102;2023-03-01T10:19:46;3.80;99.90
27890;DHT22;15238;49.082;9.102;2023-03-01T10:21:48;3.90;99.90
27890;DHT22;15238;49.082;9.102;2023-03-01T10:23:51;4.00;99.90
27890;DHT22;15238;49.082;9.102;2023-03-01T10:26:06;4.00;99.90
27890;DHT22;15238;49.082;9.102;2023-03-01T10:30:18;3.90;99.90
27890;DHT22;15238;49.082;9.102;2023-03-01T10:32:20;4.00;99.90
27890;DHT22;15238;49.082;9.102;2023-03-01T10:34:28;4.00;99.90
27890;DHT22;15238;49.082;9.102;2023-03-01T10:36:33;4.20;99.90
27890;DHT22;15238;49.082;9.102;2023-03-01T10:38:55;4.20;99.90
27890;DHT22;15238;49.082;9.102;2023-03-01T10:41:05;4.30;99.90
27890;DHT22;15238;49.082;9.102;2023-03-01T10:43:10;4.50;99.90
27890;DHT22;15238;49.082;9.102;2023-03-01T10:47:31;4.60;99.90
27890;DHT22;15238;49.082;9.102;2023-03-01T10:49:32;4.60;99.90
27890;DHT22;15238;49.082;9.102;2023-03-01T10:51:32;4.50;99.90
27890;DHT22;15238;49.082;9.102;2023-03-01T10:53:40;4.60;99.90
27890;DHT22;15238;49.082;9.102;2023-03-01T10:55:40;4.80;99.90
27890;DHT22;15238;49.082;9.102;2023-03-01T10:57:41;4.80;99.90
27890;DHT22;15238;49.082;9.102;2023-03-01T10:59:42;4.90;99.90
27890;DHT22;15238;49.082;9.102;2023-03-01T11:01:42;5.10;99.90
27890;DHT22;15238;49.082;9.102;2023-03-01T11:03:43;4.90;99.90
27890;DHT22;15238;49.082;9.102;2023-03-01T11:08:04;5.00;99.90
27890;DHT22;15238;49.082;9.102;2023-03-01T11:10:11;5.20;99.90
27890;DHT22;15238;49.082;9.102;2023-03-01T11:12:16;5.20;99.90
27890;DHT22;15238;49.082;9.102;2023-03-01T11:14:25;5.20;99.90
27890;DHT22;15238;49.082;9.102;2023-03-01T11:16:35;5.20;99.90
27890;DHT22;15238;49.082;9.102;2023-03-01T11:18:36;5.30;99.90
27890;DHT22;15238;49.082;9.102;2023-03-01T11:20:37;5.40;99.90
27890;DHT22;15238;49.082;9.102;2023-03-01T11:22:58;5.30;99.90
27890;DHT22;15238;49.082;9.102;2023-03-01T11:25:00;5.40;99.90
27890;DHT22;15238;49.082;9.102;2023-03-01T11:27:06;5.50;99.90
27890;DHT22;15238;49.082;9.102;2023-03-01T11:31:31;5.50;99.90
27890;DHT22;15238;49.082;9.102;2023-03-01T11:33:53;5.50;99.90
27890;DHT22;15238;49.082;9.102;2023-03-01T11:36:00;5.60;99.90
27890;DHT22;15238;49.082;9.102;2023-03-01T11:42:18;5.80;99.90
27890;DHT22;15238;49.082;9.102;2023-03-01T11:44:26;5.90;99.90
27890;DHT22;15238;49.082;9.102;2023-03-01T11:51:07;6.00;99.90
27890;DHT22;15238;49.082;9.102;2023-03-01T12:09:44;6.20;99.90
27890;DHT22;15238;49.082;9.102;2023-03-01T12:19:07;6.50;99.90
27890;DHT22;15238;49.082;9.102;2023-03-01T12:21:46;6.60;99.90
27890;DHT22;15238;49.082;9.102;2023-03-01T12:24:07;6.60;99.90
27890;DHT22;15238;49.082;9.102;2023-03-01T12:26:29;6.60;99.50
27890;DHT22;15238;49.082;9.102;2023-03-01T12:28:49;6.50;99.70
27890;DHT22;15238;49.082;9.102;2023-03-01T12:33:15;6.50;99.90
27890;DHT22;15238;49.082;9.102;2023-03-01T12:35:34;6.60;99.70
27890;DHT22;15238;49.082;9.102;2023-03-01T12:37:47;6.60;99.90
27890;DHT22;15238;49.082;9.102;2023-03-01T12:42:20;6.60;99.60
27890;DHT22;15238;49.082;9.102;2023-03-01T12:46:50;6.60;99.10
27890;DHT22;15238;49.082;9.102;2023-03-01T12:49:08;6.40;99.30
27890;DHT22;15238;49.082;9.102;2023-03-01T12:51:14;6.40;99.30
27890;DHT22;15238;49.082;9.102;2023-03-01T12:53:28;6.40;98.90
27890;DHT22;15238;49.082;9.102;2023-03-01T12:55:38;6.50;99.90
27890;DHT22;15238;49.082;9.102;2023-03-01T12:57:53;6.70;99.10
27890;DHT22;15238;49.082;9.102;2023-03-01T13:02:35;6.70;99.50
27890;DHT22;15238;49.082;9.102;2023-03-01T13:07:23;6.70;99.00
27890;DHT22;15238;49.082;9.102;2023-03-01T13:11:32;6.70;98.90
27890;DHT22;15238;49.082;9.102;2023-03-01T13:13:34;6.70;98.90
27890;DHT22;15238;49.082;9.102;2023-03-01T13:15:36;6.80;98.70
27890;DHT22;15238;49.082;9.102;2023-03-01T13:17:44;6.90;98.50
27890;DHT22;15238;49.082;9.102;2023-03-01T13:19:56;6.90;98.50
27890;DHT22;15238;49.082;9.102;2023-03-01T13:21:58;6.90;98.70
27890;DHT22;15238;49.082;9.102;2023-03-01T13:23:59;6.90;98.00
27890;DHT22;15238;49.082;9.102;2023-03-01T13:26:07;6.80;98.30
27890;DHT22;15238;49.082;9.102;2023-03-01T13:30:41;6.90;98.40
27890;DHT22;15238;49.082;9.102;2023-03-01T13:32:42;6.90;98.70
27890;DHT22;15238;49.082;9.102;2023-03-01T13:34:45;6.90;98.70
27890;DHT22;15238;49.082;9.102;2023-03-01T13:36:48;6.90;98.40
27890;DHT22;15238;49.082;9.102;2023-03-01T13:38:56;6.90;97.80
27890;DHT22;15238;49.082;9.102;2023-03-01T13:41:00;7.00;97.80
27890;DHT22;15238;49.082;9.102;2023-03-01T13:43:27;7.10;98.30
27890;DHT22;15238;49.082;9.102;2023-03-01T13:47:38;7.20;97.80
27890;DHT22;15238;49.082;9.102;2023-03-01T13:49:45;7.10;97.60
27890;DHT22;15238;49.082;9.102;2023-03-01T13:51:47;7.20;97.70
27890;DHT22;15238;49.082;9.102;2023-03-01T13:53:48;7.20;97.90
27890;DHT22;15238;49.082;9.102;2023-03-01T13:55:58;7.20;97.70
27890;DHT22;15238;49.082;9.102;2023-03-01T13:58:03;7.30;97.80
27890;DHT22;15238;49.082;9.102;2023-03-01T14:00:05;7.30;97.20
27890;DHT22;15238;49.082;9.102;2023-03-01T14:02:12;7.30;97.20
27890;DHT22;15238;49.082;9.102;2023-03-01T14:04:21;7.20;97.00
27890;DHT22;15238;49.082;9.102;2023-03-01T14:06:27;7.20;97.00
27890;DHT22;15238;49.082;9.102;2023-03-01T14:08:30;7.20;97.00
27890;DHT22;15238;49.082;9.102;2023-03-01T14:10:49;7.10;96.90
27890;DHT22;15238;49.082;9.102;2023-03-01T14:13:08;7.10;97.00
27890;DHT22;15238;49.082;9.102;2023-03-01T14:15:38;7.00;97.20